sensor_id;sensor_type;location;lat;lon;timestamp;temperature;humidity
67279;DHT22;54193;53.746;10.058;2023-02-02T00:00:54;5.01;91.83
67279;DHT22;54193;53.746;10.058;2023-02-02T00:03:39;5.09;91.90
67279;DHT22;54193;53.746;10.058;2023-02-02T00:06:26;5.13;91.75
67279;DHT22;54193;53.746;10.058;2023-02-02T00:09:14;5.11;91.83
67279;DHT22;54193;53.746;10.058;2023-02-02T00:12:00;5.09;91.94
67279;DHT22;54193;53.746;10.058;2023-02-02T00:14:46;5.06;91.98
67279;DHT22;54193;53.746;10.058;2023-02-02T00:17:32;5.07;91.95
67279;DHT22;54193;53.746;10.058;2023-02-02T00:20:17;5.11;91.88
67279;DHT22;54193;53.746;10.058;2023-02-02T00:23:03;5.16;91.57
67279;DHT22;54193;53.746;10.058;2023-02-02T00:25:49;5.17;91.49
67279;DHT22;54193;53.746;10.058;2023-02-02T00:28:35;5.24;90.99
67279;DHT22;54193;53.746;10.058;2023-02-02T00:31:21;5.28;90.57
67279;DHT22;54193;53.746;10.058;2023-02-02T00:34:10;5.30;90.92
67279;DHT22;54193;53.746;10.058;2023-02-02T00:36:55;5.30;90.41
67279;DHT22;54193;53.746;10.058;2023-02-02T00:39:41;5.30;90.75
67279;DHT22;54193;53.746;10.058;2023-02-02T00:42:27;5.32;90.85
67279;DHT22;54193;53.746;10.058;2023-02-02T00:45:12;5.32;90.33
67279;DHT22;54193;53.746;10.058;2023-02-02T00:48:02;5.32;90.46
67279;DHT22;54193;53.746;10.058;2023-02-02T00:50:47;5.27;90.65
67279;DHT22;54193;53.746;10.058;2023-02-02T00:53:33;5.17;91.07
67279;DHT22;54193;53.746;10.058;2023-02-02T00:56:18;5.06;91.91
67279;DHT22;54193;53.746;10.058;2023-02-02T00:59:04;4.97;92.57
67279;DHT22;54193;53.746;10.058;2023-02-02T01:01:50;4.92;92.56
67279;DHT22;54193;53.746;10.058;2023-02-02T01:04:35;4.87;92.71
67279;DHT22;54193;53.746;10.058;2023-02-02T01:07:21;4.86;92.94
67279;DHT22;54193;53.746;10.058;2023-02-02T01:10:10;4.86;92.80
67279;DHT22;54193;53.746;10.058;2023-02-02T01:12:57;4.93;91.69
67279;DHT22;54193;53.746;10.058;2023-02-02T01:15:42;4.93;91.76
67279;DHT22;54193;53.746;10.058;2023-02-02T01:18:28;4.87;91.95
67279;DHT22;54193;53.746;10.058;2023-02-02T01:21:14;4.82;92.01
67279;DHT22;54193;53.746;10.058;2023-02-02T01:23:59;4.84;92.09
67279;DHT22;54193;53.746;10.058;2023-02-02T01:26:45;4.84;92.09
67279;DHT22;54193;53.746;10.058;2023-02-02T01:29:30;4.83;92.30
67279;DHT22;54193;53.746;10.058;2023-02-02T01:32:16;4.82;92.28
67279;DHT22;54193;53.746;10.058;2023-02-02T01:35:02;4.79;91.89
67279;DHT22;54193;53.746;10.058;2023-02-02T01:37:47;4.72;91.97
67279;DHT22;54193;53.746;10.058;2023-02-02T01:40:33;4.53;91.60
67279;DHT22;54193;53.746;10.058;2023-02-02T01:43:28;4.44;92.26
67279;DHT22;54193;53.746;10.058;2023-02-02T01:46:16;4.37;92.65
67279;DHT22;54193;53.746;10.058;2023-02-02T01:51:56;4.33;92.85
67279;DHT22;54193;53.746;10.058;2023-02-02T01:54:47;4.31;92.97
67279;DHT22;54193;53.746;10.058;2023-02-02T01:57:43;4.35;93.23
67279;DHT22;54193;53.746;10.058;2023-02-02T02:00:29;4.46;93.16
67279;DHT22;54193;53.746;10.058;2023-02-02T02:03:19;4.45;93.34
67279;DHT22;54193;53.746;10.058;2023-02-02T02:06:08;4.42;93.38
67279;DHT22;54193;53.746;10.058;2023-02-02T02:08:57;4.42;93.46
67279;DHT22;54193;53.746;10.058;2023-02-02T02:11:44;4.49;93.59
67279;DHT22;54193;53.746;10.058;2023-02-02T02:14:30;4.52;93.57
67279;DHT22;54193;53.746;10.058;2023-02-02T02:17:56;4.59;93.50
67279;DHT22;54193;53.746;10.058;2023-02-02T02:34:21;4.27;93.65
67279;DHT22;54193;53.746;10.058;2023-02-02T02:37:13;4.25;93.78
67279;DHT22;54193;53.746;10.058;2023-02-02T02:43:42;4.11;94.05
67279;DHT22;54193;53.746;10.058;2023-02-02T02:46:29;4.27;94.13
67279;DHT22;54193;53.746;10.058;2023-02-02T02:49:16;4.37;94.13
67279;DHT22;54193;53.746;10.058;2023-02-02T02:52:02;4.40;94.03
67279;DHT22;54193;53.746;10.058;2023-02-02T02:54:50;4.44;93.92
67279;DHT22;54193;53.746;10.058;2023-02-02T02:58:09;4.45;93.70
67279;DHT22;54193;53.746;10.058;2023-02-02T03:01:24;4.46;93.70
67279;DHT22;54193;53.746;10.058;2023-02-02T03:04:15;4.41;93.64
67279;DHT22;54193;53.746;10.058;2023-02-02T03:07:08;4.28;93.76
67279;DHT22;54193;53.746;10.058;2023-02-02T03:09:55;4.21;93.15
67279;DHT22;54193;53.746;10.058;2023-02-02T03:12:47;4.18;92.98
67279;DHT22;54193;53.746;10.058;2023-02-02T03:15:33;4.20;93.05
67279;DHT22;54193;53.746;10.058;2023-02-02T03:18:22;4.10;92.89
67279;DHT22;54193;53.746;10.058;2023-02-02T03:21:08;4.01;92.75
67279;DHT22;54193;53.746;10.058;2023-02-02T03:23:54;3.93;92.71
67279;DHT22;54193;53.746;10.058;2023-02-02T03:26:40;3.89;92.68
67279;DHT22;54193;53.746;10.058;2023-02-02T03:29:26;3.94;92.56
67279;DHT22;54193;53.746;10.058;2023-02-02T03:32:12;4.03;92.69
67279;DHT22;54193;53.746;10.058;2023-02-02T03:34:58;4.10;92.64
67279;DHT22;54193;53.746;10.058;2023-02-02T03:37:43;4.14;92.89
67279;DHT22;54193;53.746;10.058;2023-02-02T03:40:29;4.14;92.88
67279;DHT22;54193;53.746;10.058;2023-02-02T03:43:19;4.14;92.76
67279;DHT22;54193;53.746;10.058;2023-02-02T03:46:05;4.21;92.93
67279;DHT22;54193;53.746;10.058;2023-02-02T03:48:51;4.22;92.88
67279;DHT22;54193;53.746;10.058;2023-02-02T03:51:37;4.20;92.21
67279;DHT22;54193;53.746;10.058;2023-02-02T03:54:22;4.11;92.84
67279;DHT22;54193;53.746;10.058;2023-02-02T03:57:08;4.07;93.17
67279;DHT22;54193;53.746;10.058;2023-02-02T03:59:53;4.08;93.65
67279;DHT22;54193;53.746;10.058;2023-02-02T04:02:39;4.11;93.97
67279;DHT22;54193;53.746;10.058;2023-02-02T04:05:25;4.14;94.19
67279;DHT22;54193;53.746;10.058;2023-02-02T04:08:10;4.18;94.29
67279;DHT22;54193;53.746;10.058;2023-02-02T04:10:56;4.13;94.21
67279;DHT22;54193;53.746;10.058;2023-02-02T04:13:42;4.06;94.00
67279;DHT22;54193;53.746;10.058;2023-02-02T04:16:27;4.03;93.82
67279;DHT22;54193;53.746;10.058;2023-02-02T04:19:15;4.01;94.01
67279;DHT22;54193;53.746;10.058;2023-02-02T04:22:01;4.03;94.19
67279;DHT22;54193;53.746;10.058;2023-02-02T04:24:47;4.04;94.21
67279;DHT22;54193;53.746;10.058;2023-02-02T04:27:32;4.10;94.19
67279;DHT22;54193;53.746;10.058;2023-02-02T04:30:18;4.04;94.24
67279;DHT22;54193;53.746;10.058;2023-02-02T04:33:07;4.01;94.37
67279;DHT22;54193;53.746;10.058;2023-02-02T04:35:53;3.94;94.25
67279;DHT22;54193;53.746;10.058;2023-02-02T04:38:38;3.86;94.37
67279;DHT22;54193;53.746;10.058;2023-02-02T04:41:24;3.80;94.49
67279;DHT22;54193;53.746;10.058;2023-02-02T04:44:14;3.82;94.56
67279;DHT22;54193;53.746;10.058;2023-02-02T04:47:02;3.80;94.67
67279;DHT22;54193;53.746;10.058;2023-02-02T04:49:48;3.90;94.66
67279;DHT22;54193;53.746;10.058;2023-02-02T04:52:34;4.03;94.52
67279;DHT22;54193;53.746;10.058;2023-02-02T04:55:20;4.07;94.28
67279;DHT22;54193;53.746;10.058;2023-02-02T04:58:05;4.01;94.23
67279;DHT22;54193;53.746;10.058;2023-02-02T05:00:51;3.96;94.08
67279;DHT22;54193;53.746;10.058;2023-02-02T05:03:37;3.89;93.88
67279;DHT22;54193;53.746;10.058;2023-02-02T05:06:23;3.79;94.02
67279;DHT22;54193;53.746;10.058;2023-02-02T05:09:09;3.85;94.22
67279;DHT22;54193;53.746;10.058;2023-02-02T05:11:55;3.90;94.38
67279;DHT22;54193;53.746;10.058;2023-02-02T05:14:40;3.96;94.49
67279;DHT22;54193;53.746;10.058;2023-02-02T05:17:26;3.93;94.57
67279;DHT22;54193;53.746;10.058;2023-02-02T05:20:12;4.01;94.62
67279;DHT22;54193;53.746;10.058;2023-02-02T05:22:58;4.04;94.57
67279;DHT22;54193;53.746;10.058;2023-02-02T05:25:44;4.07;94.53
67279;DHT22;54193;53.746;10.058;2023-02-02T05:28:29;4.10;94.46
67279;DHT22;54193;53.746;10.058;2023-02-02T05:31:15;4.11;94.29
67279;DHT22;54193;53.746;10.058;2023-02-02T05:34:01;4.18;94.33
67279;DHT22;54193;53.746;10.058;2023-02-02T05:36:47;4.17;94.05
67279;DHT22;54193;53.746;10.058;2023-02-02T05:39:33;4.13;94.09
67279;DHT22;54193;53.746;10.058;2023-02-02T05:42:19;4.13;93.92
67279;DHT22;54193;53.746;10.058;2023-02-02T05:45:05;4.08;93.83
67279;DHT22;54193;53.746;10.058;2023-02-02T05:47:52;4.00;93.91
67279;DHT22;54193;53.746;10.058;2023-02-02T05:50:39;4.06;94.08
67279;DHT22;54193;53.746;10.058;2023-02-02T05:53:29;4.08;94.00
67279;DHT22;54193;53.746;10.058;2023-02-02T05:56:15;4.07;93.84
67279;DHT22;54193;53.746;10.058;2023-02-02T05:59:01;4.06;93.80
67279;DHT22;54193;53.746;10.058;2023-02-02T06:01:49;4.06;93.74
67279;DHT22;54193;53.746;10.058;2023-02-02T06:04:35;3.97;93.78
67279;DHT22;54193;53.746;10.058;2023-02-02T06:07:20;3.91;93.84
67279;DHT22;54193;53.746;10.058;2023-02-02T06:10:06;3.87;93.96
67279;DHT22;54193;53.746;10.058;2023-02-02T06:12:52;3.86;93.93
67279;DHT22;54193;53.746;10.058;2023-02-02T06:15:37;3.85;93.90
67279;DHT22;54193;53.746;10.058;2023-02-02T06:18:23;3.85;93.95
67279;DHT22;54193;53.746;10.058;2023-02-02T06:21:09;3.85;93.99
67279;DHT22;54193;53.746;10.058;2023-02-02T06:23:54;3.93;94.06
67279;DHT22;54193;53.746;10.058;2023-02-02T06:26:40;3.89;93.95
67279;DHT22;54193;53.746;10.058;2023-02-02T06:29:25;3.87;93.85
67279;DHT22;54193;53.746;10.058;2023-02-02T06:32:11;3.90;93.75
67279;DHT22;54193;53.746;10.058;2023-02-02T06:34:56;3.85;93.80
67279;DHT22;54193;53.746;10.058;2023-02-02T06:37:42;3.89;93.81
67279;DHT22;54193;53.746;10.058;2023-02-02T06:40:28;3.93;93.58
67279;DHT22;54193;53.746;10.058;2023-02-02T06:43:14;3.91;93.51
67279;DHT22;54193;53.746;10.058;2023-02-02T06:46:00;3.89;93.52
67279;DHT22;54193;53.746;10.058;2023-02-02T06:48:46;3.90;93.48
67279;DHT22;54193;53.746;10.058;2023-02-02T06:51:32;3.94;93.54
67279;DHT22;54193;53.746;10.058;2023-02-02T06:54:17;3.93;93.36
67279;DHT22;54193;53.746;10.058;2023-02-02T06:57:03;3.87;93.35
67279;DHT22;54193;53.746;10.058;2023-02-02T06:59:48;3.83;93.36
67279;DHT22;54193;53.746;10.058;2023-02-02T07:02:35;3.82;93.43
67279;DHT22;54193;53.746;10.058;2023-02-02T07:05:21;3.79;93.30
67279;DHT22;54193;53.746;10.058;2023-02-02T07:08:08;3.79;93.25
67279;DHT22;54193;53.746;10.058;2023-02-02T07:10:53;3.73;93.18
67279;DHT22;54193;53.746;10.058;2023-02-02T07:13:39;3.66;93.33
67279;DHT22;54193;53.746;10.058;2023-02-02T07:16:25;3.60;93.39
67279;DHT22;54193;53.746;10.058;2023-02-02T07:19:10;3.56;93.52
67279;DHT22;54193;53.746;10.058;2023-02-02T07:21:56;3.59;93.57
67279;DHT22;54193;53.746;10.058;2023-02-02T07:24:42;3.54;93.61
67279;DHT22;54193;53.746;10.058;2023-02-02T07:27:27;3.55;93.61
67279;DHT22;54193;53.746;10.058;2023-02-02T07:30:13;3.55;93.54
67279;DHT22;54193;53.746;10.058;2023-02-02T07:32:59;3.51;93.58
67279;DHT22;54193;53.746;10.058;2023-02-02T07:35:46;3.49;93.64
67279;DHT22;54193;53.746;10.058;2023-02-02T07:38:31;3.49;93.65
67279;DHT22;54193;53.746;10.058;2023-02-02T07:41:17;3.55;93.61
67279;DHT22;54193;53.746;10.058;2023-02-02T07:44:04;3.60;93.40
67279;DHT22;54193;53.746;10.058;2023-02-02T07:46:49;3.72;93.35
67279;DHT22;54193;53.746;10.058;2023-02-02T07:49:35;3.79;93.22
67279;DHT22;54193;53.746;10.058;2023-02-02T07:52:21;3.89;93.10
67279;DHT22;54193;53.746;10.058;2023-02-02T07:55:07;4.00;93.00
67279;DHT22;54193;53.746;10.058;2023-02-02T07:57:53;4.07;92.72
67279;DHT22;54193;53.746;10.058;2023-02-02T08:00:39;4.04;92.73
67279;DHT22;54193;53.746;10.058;2023-02-02T08:03:25;4.00;92.75
67279;DHT22;54193;53.746;10.058;2023-02-02T08:06:14;3.96;92.83
67279;DHT22;54193;53.746;10.058;2023-02-02T08:09:01;4.07;92.89
67279;DHT22;54193;53.746;10.058;2023-02-02T08:11:47;4.18;92.69
67279;DHT22;54193;53.746;10.058;2023-02-02T08:14:32;4.20;92.69
67279;DHT22;54193;53.746;10.058;2023-02-02T08:17:18;4.21;92.43
67279;DHT22;54193;53.746;10.058;2023-02-02T08:20:04;4.40;92.30
67279;DHT22;54193;53.746;10.058;2023-02-02T08:22:50;4.55;91.87
67279;DHT22;54193;53.746;10.058;2023-02-02T08:25:36;4.62;92.14
67279;DHT22;54193;53.746;10.058;2023-02-02T08:28:21;4.73;91.84
67279;DHT22;54193;53.746;10.058;2023-02-02T08:31:16;4.84;91.22
67279;DHT22;54193;53.746;10.058;2023-02-02T08:34:03;4.97;91.13
67279;DHT22;54193;53.746;10.058;2023-02-02T08:36:49;5.11;90.92
67279;DHT22;54193;53.746;10.058;2023-02-02T08:39:34;5.06;90.52
67279;DHT22;54193;53.746;10.058;2023-02-02T08:42:20;5.21;90.73
67279;DHT22;54193;53.746;10.058;2023-02-02T08:45:06;5.39;90.22
67279;DHT22;54193;53.746;10.058;2023-02-02T08:47:52;5.47;90.00
67279;DHT22;54193;53.746;10.058;2023-02-02T08:50:38;5.72;89.45
67279;DHT22;54193;53.746;10.058;2023-02-02T08:53:25;5.99;89.28
67279;DHT22;54193;53.746;10.058;2023-02-02T08:56:16;6.11;88.61
67279;DHT22;54193;53.746;10.058;2023-02-02T08:59:02;6.28;88.05
67279;DHT22;54193;53.746;10.058;2023-02-02T09:01:49;6.30;87.41
67279;DHT22;54193;53.746;10.058;2023-02-02T09:04:35;6.44;87.51
67279;DHT22;54193;53.746;10.058;2023-02-02T09:07:20;6.30;86.56
67279;DHT22;54193;53.746;10.058;2023-02-02T09:10:06;6.76;87.12
67279;DHT22;54193;53.746;10.058;2023-02-02T09:12:52;7.11;86.20
67279;DHT22;54193;53.746;10.058;2023-02-02T09:15:38;7.41;84.92
67279;DHT22;54193;53.746;10.058;2023-02-02T09:18:23;7.27;84.35
67279;DHT22;54193;53.746;10.058;2023-02-02T09:21:12;7.55;83.20
67279;DHT22;54193;53.746;10.058;2023-02-02T09:23:58;7.75;83.29
67279;DHT22;54193;53.746;10.058;2023-02-02T09:26:44;8.17;82.35
67279;DHT22;54193;53.746;10.058;2023-02-02T09:29:29;8.21;81.78
67279;DHT22;54193;53.746;10.058;2023-02-02T09:32:15;8.45;80.07
67279;DHT22;54193;53.746;10.058;2023-02-02T09:35:01;8.68;80.05
67279;DHT22;54193;53.746;10.058;2023-02-02T09:37:46;9.16;77.75
67279;DHT22;54193;53.746;10.058;2023-02-02T09:40:33;8.69;79.37
67279;DHT22;54193;53.746;10.058;2023-02-02T09:43:36;8.51;80.89
67279;DHT22;54193;53.746;10.058;2023-02-02T09:52:58;9.78;76.49
67279;DHT22;54193;53.746;10.058;2023-02-02T09:55:49;8.87;78.92
67279;DHT22;54193;53.746;10.058;2023-02-02T09:58:44;8.80;80.13
67279;DHT22;54193;53.746;10.058;2023-02-02T10:01:35;10.18;74.17
67279;DHT22;54193;53.746;10.058;2023-02-02T10:04:35;9.81;76.36
67279;DHT22;54193;53.746;10.058;2023-02-02T10:07:31;9.22;76.75
67279;DHT22;54193;53.746;10.058;2023-02-02T10:10:26;8.20;79.99
67279;DHT22;54193;53.746;10.058;2023-02-02T10:13:17;7.50;81.71
67279;DHT22;54193;53.746;10.058;2023-02-02T10:16:14;7.01;83.34
67279;DHT22;54193;53.746;10.058;2023-02-02T10:19:04;6.83;83.91
67279;DHT22;54193;53.746;10.058;2023-02-02T10:24:36;6.45;85.01
67279;DHT22;54193;53.746;10.058;2023-02-02T10:27:33;6.83;84.35
67279;DHT22;54193;53.746;10.058;2023-02-02T10:30:30;6.96;83.81
67279;DHT22;54193;53.746;10.058;2023-02-02T10:33:32;6.90;84.53
67279;DHT22;54193;53.746;10.058;2023-02-02T10:36:31;7.11;83.08
67279;DHT22;54193;53.746;10.058;2023-02-02T10:45:54;6.75;82.95
67279;DHT22;54193;53.746;10.058;2023-02-02T10:48:45;6.83;82.32
67279;DHT22;54193;53.746;10.058;2023-02-02T10:51:31;6.53;81.33
67279;DHT22;54193;53.746;10.058;2023-02-02T10:54:39;6.46;81.29
67279;DHT22;54193;53.746;10.058;2023-02-02T10:57:42;6.17;81.61
67279;DHT22;54193;53.746;10.058;2023-02-02T11:00:39;6.00;83.15
67279;DHT22;54193;53.746;10.058;2023-02-02T11:03:30;5.85;83.57
67279;DHT22;54193;53.746;10.058;2023-02-02T11:06:16;5.92;83.74
67279;DHT22;54193;53.746;10.058;2023-02-02T11:09:25;5.76;83.23
67279;DHT22;54193;53.746;10.058;2023-02-02T11:12:36;5.69;82.37
67279;DHT22;54193;53.746;10.058;2023-02-02T11:15:28;5.76;82.95
67279;DHT22;54193;53.746;10.058;2023-02-02T11:18:34;5.79;82.73
67279;DHT22;54193;53.746;10.058;2023-02-02T11:24:27;6.11;82.03
67279;DHT22;54193;53.746;10.058;2023-02-02T11:27:14;6.31;81.82
67279;DHT22;54193;53.746;10.058;2023-02-02T11:30:21;6.46;81.63
67279;DHT22;54193;53.746;10.058;2023-02-02T11:36:18;6.73;80.96
67279;DHT22;54193;53.746;10.058;2023-02-02T11:39:17;6.71;79.43
67279;DHT22;54193;53.746;10.058;2023-02-02T11:42:06;6.83;79.88
67279;DHT22;54193;53.746;10.058;2023-02-02T11:44:57;6.82;79.87
67279;DHT22;54193;53.746;10.058;2023-02-02T11:47:44;6.90;80.43
67279;DHT22;54193;53.746;10.058;2023-02-02T11:50:30;6.73;80.42
67279;DHT22;54193;53.746;10.058;2023-02-02T11:53:29;6.67;79.52
67279;DHT22;54193;53.746;10.058;2023-02-02T11:56:22;6.80;78.97
67279;DHT22;54193;53.746;10.058;2023-02-02T11:59:31;6.97;77.90
67279;DHT22;54193;53.746;10.058;2023-02-02T12:02:29;7.11;79.00
67279;DHT22;54193;53.746;10.058;2023-02-02T12:08:04;7.07;78.89
67279;DHT22;54193;53.746;10.058;2023-02-02T12:10:57;7.08;78.79
67279;DHT22;54193;53.746;10.058;2023-02-02T12:13:59;6.97;78.73
67279;DHT22;54193;53.746;10.058;2023-02-02T12:17:14;7.04;79.74
67279;DHT22;54193;53.746;10.058;2023-02-02T12:32:23;7.27;76.39
67279;DHT22;54193;53.746;10.058;2023-02-02T12:41:12;7.08;78.62
67279;DHT22;54193;53.746;10.058;2023-02-02T12:56:52;6.56;79.82
67279;DHT22;54193;53.746;10.058;2023-02-02T12:59:57;6.41;79.01
67279;DHT22;54193;53.746;10.058;2023-02-02T13:09:02;6.46;79.66
67279;DHT22;54193;53.746;10.058;2023-02-02T13:11:57;6.46;79.73
67279;DHT22;54193;53.746;10.058;2023-02-02T13:17:52;6.30;78.74
67279;DHT22;54193;53.746;10.058;2023-02-02T13:20:51;6.23;79.80
67279;DHT22;54193;53.746;10.058;2023-02-02T13:23:45;6.17;80.21
67279;DHT22;54193;53.746;10.058;2023-02-02T13:26:41;6.17;80.96
67279;DHT22;54193;53.746;10.058;2023-02-02T13:29:38;6.20;80.84
67279;DHT22;54193;53.746;10.058;2023-02-02T13:32:29;6.23;80.41
67279;DHT22;54193;53.746;10.058;2023-02-02T13:35:19;6.32;80.91
67279;DHT22;54193;53.746;10.058;2023-02-02T13:38:14;6.35;80.07
67279;DHT22;54193;53.746;10.058;2023-02-02T13:41:05;6.40;80.27
67279;DHT22;54193;53.746;10.058;2023-02-02T13:44:05;6.38;80.17
67279;DHT22;54193;53.746;10.058;2023-02-02T13:46:55;6.40;80.64
67279;DHT22;54193;53.746;10.058;2023-02-02T13:49:46;6.38;79.68
67279;DHT22;54193;53.746;10.058;2023-02-02T13:53:09;6.44;81.31
67279;DHT22;54193;53.746;10.058;2023-02-02T13:56:21;6.48;80.19
67279;DHT22;54193;53.746;10.058;2023-02-02T13:59:46;6.42;80.84
67279;DHT22;54193;53.746;10.058;2023-02-02T14:02:41;6.40;80.89
67279;DHT22;54193;53.746;10.058;2023-02-02T14:05:35;6.48;80.58
67279;DHT22;54193;53.746;10.058;2023-02-02T14:08:23;6.52;79.59
67279;DHT22;54193;53.746;10.058;2023-02-02T14:11:25;6.58;79.81
67279;DHT22;54193;53.746;10.058;2023-02-02T14:14:16;6.67;79.73
67279;DHT22;54193;53.746;10.058;2023-02-02T14:20:38;6.78;78.62
67279;DHT22;54193;53.746;10.058;2023-02-02T14:23:52;6.78;78.03
67279;DHT22;54193;53.746;10.058;2023-02-02T14:26:50;6.73;77.10
67279;DHT22;54193;53.746;10.058;2023-02-02T14:29:57;6.72;77.39
67279;DHT22;54193;53.746;10.058;2023-02-02T14:32:42;6.62;76.31
67279;DHT22;54193;53.746;10.058;2023-02-02T14:41:29;6.42;76.31
67279;DHT22;54193;53.746;10.058;2023-02-02T14:44:34;6.38;78.06
67279;DHT22;54193;53.746;10.058;2023-02-02T14:56:16;6.20;79.01
67279;DHT22;54193;53.746;10.058;2023-02-02T14:59:03;6.11;79.12
67279;DHT22;54193;53.746;10.058;2023-02-02T15:02:19;6.07;79.55
67279;DHT22;54193;53.746;10.058;2023-02-02T15:08:25;5.92;81.36
67279;DHT22;54193;53.746;10.058;2023-02-02T15:11:12;5.93;80.59
67279;DHT22;54193;53.746;10.058;2023-02-02T15:14:14;5.89;81.70
67279;DHT22;54193;53.746;10.058;2023-02-02T15:17:02;5.82;81.42
67279;DHT22;54193;53.746;10.058;2023-02-02T15:20:23;5.79;81.84
67279;DHT22;54193;53.746;10.058;2023-02-02T15:26:26;5.55;82.85
67279;DHT22;54193;53.746;10.058;2023-02-02T15:29:17;5.45;83.16
67279;DHT22;54193;53.746;10.058;2023-02-02T15:32:05;5.34;83.57
67279;DHT22;54193;53.746;10.058;2023-02-02T15:35:01;5.27;83.49
67279;DHT22;54193;53.746;10.058;2023-02-02T15:37:54;5.18;84.34
67279;DHT22;54193;53.746;10.058;2023-02-02T15:40:42;5.00;84.69
67279;DHT22;54193;53.746;10.058;2023-02-02T15:43:29;4.92;85.07
67279;DHT22;54193;53.746;10.058;2023-02-02T15:46:17;4.80;85.69
67279;DHT22;54193;53.746;10.058;2023-02-02T15:52:22;4.45;86.51
67279;DHT22;54193;53.746;10.058;2023-02-02T15:55:30;4.30;87.20
67279;DHT22;54193;53.746;10.058;2023-02-02T15:58:23;4.24;87.64
67279;DHT22;54193;53.746;10.058;2023-02-02T16:01:21;4.15;87.88
67279;DHT22;54193;53.746;10.058;2023-02-02T16:04:17;3.98;88.31
67279;DHT22;54193;53.746;10.058;2023-02-02T16:07:06;3.90;89.07
67279;DHT22;54193;53.746;10.058;2023-02-02T16:09:55;3.80;89.40
67279;DHT22;54193;53.746;10.058;2023-02-02T16:12:41;3.69;89.49
67279;DHT22;54193;53.746;10.058;2023-02-02T16:15:28;3.70;90.23
67279;DHT22;54193;53.746;10.058;2023-02-02T16:18:14;3.70;90.30
67279;DHT22;54193;53.746;10.058;2023-02-02T16:21:03;3.68;90.49
67279;DHT22;54193;53.746;10.058;2023-02-02T16:23:51;3.60;90.48
67279;DHT22;54193;53.746;10.058;2023-02-02T16:26:37;3.59;90.68
67279;DHT22;54193;53.746;10.058;2023-02-02T16:29:23;3.55;90.97
67279;DHT22;54193;53.746;10.058;2023-02-02T16:32:24;3.52;91.14
67279;DHT22;54193;53.746;10.058;2023-02-02T16:35:37;3.54;91.21
67279;DHT22;54193;53.746;10.058;2023-02-02T16:38:29;3.51;91.27
67279;DHT22;54193;53.746;10.058;2023-02-02T16:41:34;3.45;91.46
67279;DHT22;54193;53.746;10.058;2023-02-02T16:44:39;3.45;91.52
67279;DHT22;54193;53.746;10.058;2023-02-02T16:50:24;3.32;91.72
67279;DHT22;54193;53.746;10.058;2023-02-02T16:53:20;3.17;91.90
67279;DHT22;54193;53.746;10.058;2023-02-02T16:56:07;3.10;91.92
67279;DHT22;54193;53.746;10.058;2023-02-02T16:58:54;2.94;92.15
67279;DHT22;54193;53.746;10.058;2023-02-02T17:01:46;2.93;92.25
67279;DHT22;54193;53.746;10.058;2023-02-02T17:04:34;2.83;92.33
67279;DHT22;54193;53.746;10.058;2023-02-02T17:07:20;2.71;92.41
67279;DHT22;54193;53.746;10.058;2023-02-02T17:13:03;2.52;92.74
67279;DHT22;54193;53.746;10.058;2023-02-02T17:16:13;2.41;92.71
67279;DHT22;54193;53.746;10.058;2023-02-02T17:19:00;2.38;92.78
67279;DHT22;54193;53.746;10.058;2023-02-02T17:21:46;2.41;92.91
67279;DHT22;54193;53.746;10.058;2023-02-02T17:24:33;2.41;93.00
67279;DHT22;54193;53.746;10.058;2023-02-02T17:27:30;2.38;93.14
67279;DHT22;54193;53.746;10.058;2023-02-02T17:30:18;2.37;93.23
67279;DHT22;54193;53.746;10.058;2023-02-02T17:33:07;2.37;93.31
67279;DHT22;54193;53.746;10.058;2023-02-02T17:35:53;2.45;93.41
67279;DHT22;54193;53.746;10.058;2023-02-02T17:38:39;2.59;93.48
67279;DHT22;54193;53.746;10.058;2023-02-02T17:41:25;2.65;93.54
67279;DHT22;54193;53.746;10.058;2023-02-02T17:44:11;2.71;93.60
67279;DHT22;54193;53.746;10.058;2023-02-02T17:46:56;2.77;93.64
67279;DHT22;54193;53.746;10.058;2023-02-02T17:49:42;2.79;93.73
67279;DHT22;54193;53.746;10.058;2023-02-02T17:52:27;2.90;93.74
67279;DHT22;54193;53.746;10.058;2023-02-02T17:55:40;3.00;93.77
67279;DHT22;54193;53.746;10.058;2023-02-02T17:58:26;3.04;93.69
67279;DHT22;54193;53.746;10.058;2023-02-02T18:01:12;3.03;93.63
67279;DHT22;54193;53.746;10.058;2023-02-02T18:03:58;3.01;93.61
67279;DHT22;54193;53.746;10.058;2023-02-02T18:06:43;3.05;93.54
67279;DHT22;54193;53.746;10.058;2023-02-02T18:09:29;3.07;93.47
67279;DHT22;54193;53.746;10.058;2023-02-02T18:12:18;3.13;93.40
67279;DHT22;54193;53.746;10.058;2023-02-02T18:15:06;3.22;93.32
67279;DHT22;54193;53.746;10.058;2023-02-02T18:17:52;3.30;93.19
67279;DHT22;54193;53.746;10.058;2023-02-02T18:20:43;3.39;93.05
67279;DHT22;54193;53.746;10.058;2023-02-02T18:23:29;3.43;92.96
67279;DHT22;54193;53.746;10.058;2023-02-02T18:26:17;3.46;92.88
67279;DHT22;54193;53.746;10.058;2023-02-02T18:29:03;3.51;92.75
67279;DHT22;54193;53.746;10.058;2023-02-02T18:31:49;3.54;92.65
67279;DHT22;54193;53.746;10.058;2023-02-02T18:34:35;3.60;92.69
67279;DHT22;54193;53.746;10.058;2023-02-02T18:37:22;3.68;92.66
67279;DHT22;54193;53.746;10.058;2023-02-02T18:40:10;3.78;92.46
67279;DHT22;54193;53.746;10.058;2023-02-02T18:42:56;3.86;92.23
67279;DHT22;54193;53.746;10.058;2023-02-02T18:45:42;3.94;92.07
67279;DHT22;54193;53.746;10.058;2023-02-02T18:48:28;4.03;91.73
67279;DHT22;54193;53.746;10.058;2023-02-02T18:51:15;4.15;91.38
67279;DHT22;54193;53.746;10.058;2023-02-02T18:54:02;4.21;91.08
67279;DHT22;54193;53.746;10.058;2023-02-02T18:56:48;4.22;91.02
67279;DHT22;54193;53.746;10.058;2023-02-02T18:59:33;4.28;90.64
67279;DHT22;54193;53.746;10.058;2023-02-02T19:02:20;4.30;90.57
67279;DHT22;54193;53.746;10.058;2023-02-02T19:05:06;4.31;90.58
67279;DHT22;54193;53.746;10.058;2023-02-02T19:08:10;4.33;90.45
67279;DHT22;54193;53.746;10.058;2023-02-02T19:10:59;4.31;90.21
67279;DHT22;54193;53.746;10.058;2023-02-02T19:13:46;4.35;90.24
67279;DHT22;54193;53.746;10.058;2023-02-02T19:16:32;4.37;90.02
67279;DHT22;54193;53.746;10.058;2023-02-02T19:19:23;4.38;89.89
67279;DHT22;54193;53.746;10.058;2023-02-02T19:22:18;4.42;89.69
67279;DHT22;54193;53.746;10.058;2023-02-02T19:25:09;4.44;89.43
67279;DHT22;54193;53.746;10.058;2023-02-02T19:27:57;4.45;89.35
67279;DHT22;54193;53.746;10.058;2023-02-02T19:30:42;4.48;89.49
67279;DHT22;54193;53.746;10.058;2023-02-02T19:33:48;4.52;89.32
67279;DHT22;54193;53.746;10.058;2023-02-02T19:36:35;4.62;89.12
67279;DHT22;54193;53.746;10.058;2023-02-02T19:39:25;4.61;88.96
67279;DHT22;54193;53.746;10.058;2023-02-02T19:42:13;4.61;89.03
67279;DHT22;54193;53.746;10.058;2023-02-02T19:44:59;4.63;89.17
67279;DHT22;54193;53.746;10.058;2023-02-02T19:47:45;4.61;89.30
67279;DHT22;54193;53.746;10.058;2023-02-02T19:50:36;4.65;89.28